sensor_id;sensor_type;location;lat;lon;timestamp;P1;durP1;ratioP1;P2;durP2;ratioP2
32780;SDS011;19136;47.032;15.502;2022-11-03T00:02:15;10.65;;;4.35;;
32780;SDS011;19136;47.032;15.502;2022-11-03T00:04:41;9.40;;;5.00;;
32780;SDS011;19136;47.032;15.502;2022-11-03T00:07:07;6.82;;;4.38;;
32780;SDS011;19136;47.032;15.502;2022-11-03T00:09:33;8.50;;;4.60;;
32780;SDS011;19136;47.032;15.502;2022-11-03T00:11:58;8.13;;;4.90;;
32780;SDS011;19136;47.032;15.502;2022-11-03T00:14:24;8.65;;;4.43;;
32780;SDS011;19136;47.032;15.502;2022-11-03T00:16:50;10.85;;;5.78;;
32780;SDS011;19136;47.032;15.502;2022-11-03T00:19:15;11.27;;;4.75;;
32780;SDS011;19136;47.032;15.502;2022-11-03T00:21:41;7.60;;;4.47;;
32780;SDS011;19136;47.032;15.502;2022-11-03T00:24:07;9.73;;;4.22;;
32780;SDS011;19136;47.032;15.502;2022-11-03T00:26:33;9.88;;;5.03;;
32780;SDS011;19136;47.032;15.502;2022-11-03T00:29:00;9.75;;;4.80;;
32780;SDS011;19136;47.032;15.502;2022-11-03T00:31:34;10.93;;;4.63;;
32780;SDS011;19136;47.032;15.502;2022-11-03T00:34:01;8.48;;;4.72;;
32780;SDS011;19136;47.032;15.502;2022-11-03T00:36:28;9.88;;;4.32;;
32780;SDS011;19136;47.032;15.502;2022-11-03T00:39:04;10.00;;;4.72;;
32780;SDS011;19136;47.032;15.502;2022-11-03T00:41:30;9.68;;;4.13;;
32780;SDS011;19136;47.032;15.502;2022-11-03T00:43:56;10.15;;;4.95;;
32780;SDS011;19136;47.032;15.502;2022-11-03T00:46:22;8.82;;;4.72;;
32780;SDS011;19136;47.032;15.502;2022-11-03T00:48:48;7.75;;;4.80;;
32780;SDS011;19136;47.032;15.502;2022-11-03T00:56:16;11.63;;;4.90;;
32780;SDS011;19136;47.032;15.502;2022-11-03T00:58:44;7.57;;;4.60;;
32780;SDS011;19136;47.032;15.502;2022-11-03T01:01:13;9.23;;;4.57;;
32780;SDS011;19136;47.032;15.502;2022-11-03T01:03:40;12.45;;;4.70;;
32780;SDS011;19136;47.032;15.502;2022-11-03T01:06:27;14.25;;;5.18;;
32780;SDS011;19136;47.032;15.502;2022-11-03T01:09:11;12.85;;;5.28;;
32780;SDS011;19136;47.032;15.502;2022-11-03T01:11:36;11.07;;;5.05;;
32780;SDS011;19136;47.032;15.502;2022-11-03T01:14:13;11.52;;;4.80;;
32780;SDS011;19136;47.032;15.502;2022-11-03T01:16:39;11.93;;;5.18;;
32780;SDS011;19136;47.032;15.502;2022-11-03T01:19:05;10.80;;;4.80;;
32780;SDS011;19136;47.032;15.502;2022-11-03T01:21:31;13.57;;;4.97;;
32780;SDS011;19136;47.032;15.502;2022-11-03T01:23:59;9.45;;;4.70;;
32780;SDS011;19136;47.032;15.502;2022-11-03T01:26:25;11.45;;;5.32;;
32780;SDS011;19136;47.032;15.502;2022-11-03T01:28:51;13.77;;;5.50;;
32780;SDS011;19136;47.032;15.502;2022-11-03T01:31:18;10.23;;;4.80;;
32780;SDS011;19136;47.032;15.502;2022-11-03T01:33:45;14.77;;;4.80;;
32780;SDS011;19136;47.032;15.502;2022-11-03T01:36:11;15.70;;;4.85;;
32780;SDS011;19136;47.032;15.502;2022-11-03T01:38:37;9.07;;;4.57;;
32780;SDS011;19136;47.032;15.502;2022-11-03T01:41:04;15.02;;;5.30;;
32780;SDS011;19136;47.032;15.502;2022-11-03T01:43:31;10.35;;;5.20;;
32780;SDS011;19136;47.032;15.502;2022-11-03T01:46:07;11.30;;;4.60;;
32780;SDS011;19136;47.032;15.502;2022-11-03T01:48:57;8.25;;;5.00;;
32780;SDS011;19136;47.032;15.502;2022-11-03T01:51:25;11.30;;;5.13;;
32780;SDS011;19136;47.032;15.502;2022-11-03T01:53:51;16.67;;;5.40;;
32780;SDS011;19136;47.032;15.502;2022-11-03T01:56:17;14.00;;;5.40;;
32780;SDS011;19136;47.032;15.502;2022-11-03T01:58:44;13.02;;;5.40;;
32780;SDS011;19136;47.032;15.502;2022-11-03T02:01:10;10.57;;;5.45;;
32780;SDS011;19136;47.032;15.502;2022-11-03T02:03:39;12.00;;;5.60;;
32780;SDS011;19136;47.032;15.502;2022-11-03T02:06:06;12.70;;;6.22;;
32780;SDS011;19136;47.032;15.502;2022-11-03T02:08:48;15.00;;;8.15;;
32780;SDS011;19136;47.032;15.502;2022-11-03T02:11:16;12.70;;;7.43;;
32780;SDS011;19136;47.032;15.502;2022-11-03T02:14:00;13.07;;;8.10;;
32780;SDS011;19136;47.032;15.502;2022-11-03T02:16:26;12.95;;;6.78;;
32780;SDS011;19136;47.032;15.502;2022-11-03T02:18:53;14.55;;;7.80;;
32780;SDS011;19136;47.032;15.502;2022-11-03T02:21:27;14.95;;;7.68;;
32780;SDS011;19136;47.032;15.502;2022-11-03T02:24:00;14.20;;;7.22;;
32780;SDS011;19136;47.032;15.502;2022-11-03T02:26:30;19.55;;;9.82;;
32780;SDS011;19136;47.032;15.502;2022-11-03T02:28:56;18.90;;;9.55;;
32780;SDS011;19136;47.032;15.502;2022-11-03T02:31:25;19.67;;;9.88;;
32780;SDS011;19136;47.032;15.502;2022-11-03T02:37:16;21.85;;;10.05;;
32780;SDS011;19136;47.032;15.502;2022-11-03T02:40:07;19.08;;;9.70;;
32780;SDS011;19136;47.032;15.502;2022-11-03T02:42:37;18.05;;;9.70;;
32780;SDS011;19136;47.032;15.502;2022-11-03T02:45:05;18.85;;;10.13;;
32780;SDS011;19136;47.032;15.502;2022-11-03T02:47:32;13.70;;;9.07;;
32780;SDS011;19136;47.032;15.502;2022-11-03T02:49:59;18.75;;;10.35;;
32780;SDS011;19136;47.032;15.502;2022-11-03T02:55:06;18.10;;;9.73;;
32780;SDS011;19136;47.032;15.502;2022-11-03T02:57:36;22.88;;;9.93;;
32780;SDS011;19136;47.032;15.502;2022-11-03T03:00:07;19.58;;;9.60;;
32780;SDS011;19136;47.032;15.502;2022-11-03T03:02:40;20.75;;;10.80;;
32780;SDS011;19136;47.032;15.502;2022-11-03T03:05:12;20.90;;;10.63;;
32780;SDS011;19136;47.032;15.502;2022-11-03T03:07:40;21.23;;;10.52;;
32780;SDS011;19136;47.032;15.502;2022-11-03T03:10:24;19.70;;;10.63;;
32780;SDS011;19136;47.032;15.502;2022-11-03T03:12:52;18.40;;;9.10;;
32780;SDS011;19136;47.032;15.502;2022-11-03T03:15:21;21.42;;;9.65;;
32780;SDS011;19136;47.032;15.502;2022-11-03T03:17:53;19.38;;;8.30;;
32780;SDS011;19136;47.032;15.502;2022-11-03T03:23:03;22.85;;;9.50;;
32780;SDS011;19136;47.032;15.502;2022-11-03T03:25:47;25.65;;;9.48;;
32780;SDS011;19136;47.032;15.502;2022-11-03T03:28:24;17.45;;;9.43;;
32780;SDS011;19136;47.032;15.502;2022-11-03T03:30:54;18.38;;;10.15;;
32780;SDS011;19136;47.032;15.502;2022-11-03T03:33:21;23.58;;;10.25;;
32780;SDS011;19136;47.032;15.502;2022-11-03T03:35:47;19.58;;;10.20;;
32780;SDS011;19136;47.032;15.502;2022-11-03T03:38:23;21.17;;;9.38;;
32780;SDS011;19136;47.032;15.502;2022-11-03T03:40:52;20.27;;;9.98;;
32780;SDS011;19136;47.032;15.502;2022-11-03T03:43:20;22.45;;;10.02;;
32780;SDS011;19136;47.032;15.502;2022-11-03T03:45:47;22.35;;;10.00;;
32780;SDS011;19136;47.032;15.502;2022-11-03T03:48:14;21.33;;;10.40;;
32780;SDS011;19136;47.032;15.502;2022-11-03T03:50:40;22.20;;;9.90;;
32780;SDS011;19136;47.032;15.502;2022-11-03T03:53:08;20.45;;;9.63;;
32780;SDS011;19136;47.032;15.502;2022-11-03T03:55:37;26.73;;;9.68;;
32780;SDS011;19136;47.032;15.502;2022-11-03T03:58:05;22.58;;;9.75;;
32780;SDS011;19136;47.032;15.502;2022-11-03T04:00:31;20.60;;;9.68;;
32780;SDS011;19136;47.032;15.502;2022-11-03T04:02:56;19.20;;;10.50;;
32780;SDS011;19136;47.032;15.502;2022-11-03T04:05:26;22.73;;;9.02;;
32780;SDS011;19136;47.032;15.502;2022-11-03T04:07:52;17.85;;;9.73;;
32780;SDS011;19136;47.032;15.502;2022-11-03T04:10:18;18.17;;;9.90;;
32780;SDS011;19136;47.032;15.502;2022-11-03T04:12:45;18.40;;;9.52;;
32780;SDS011;19136;47.032;15.502;2022-11-03T04:15:29;21.42;;;10.10;;
32780;SDS011;19136;47.032;15.502;2022-11-03T04:18:14;19.92;;;9.80;;
32780;SDS011;19136;47.032;15.502;2022-11-03T04:20:59;20.90;;;9.50;;
32780;SDS011;19136;47.032;15.502;2022-11-03T04:23:42;18.73;;;8.93;;
32780;SDS011;19136;47.032;15.502;2022-11-03T04:26:12;23.08;;;10.35;;
32780;SDS011;19136;47.032;15.502;2022-11-03T04:28:39;16.73;;;9.30;;
32780;SDS011;19136;47.032;15.502;2022-11-03T04:31:11;17.95;;;9.75;;
32780;SDS011;19136;47.032;15.502;2022-11-03T04:33:38;19.00;;;9.68;;
32780;SDS011;19136;47.032;15.502;2022-11-03T04:36:09;18.25;;;8.88;;
32780;SDS011;19136;47.032;15.502;2022-11-03T04:38:35;17.60;;;9.48;;
32780;SDS011;19136;47.032;15.502;2022-11-03T04:41:01;15.15;;;8.93;;
32780;SDS011;19136;47.032;15.502;2022-11-03T04:43:32;21.67;;;10.45;;
32780;SDS011;19136;47.032;15.502;2022-11-03T04:45:58;14.10;;;8.93;;
32780;SDS011;19136;47.032;15.502;2022-11-03T04:48:24;17.45;;;9.48;;
32780;SDS011;19136;47.032;15.502;2022-11-03T04:50:52;17.52;;;9.80;;
32780;SDS011;19136;47.032;15.502;2022-11-03T04:53:20;19.40;;;9.15;;
32780;SDS011;19136;47.032;15.502;2022-11-03T04:55:48;23.80;;;9.50;;
32780;SDS011;19136;47.032;15.502;2022-11-03T04:58:19;23.65;;;9.20;;
32780;SDS011;19136;47.032;15.502;2022-11-03T05:00:52;20.77;;;9.38;;
32780;SDS011;19136;47.032;15.502;2022-11-03T05:03:20;23.13;;;9.68;;
32780;SDS011;19136;47.032;15.502;2022-11-03T05:05:47;20.80;;;9.70;;
32780;SDS011;19136;47.032;15.502;2022-11-03T05:08:13;26.25;;;10.35;;
32780;SDS011;19136;47.032;15.502;2022-11-03T05:10:40;18.45;;;9.68;;
32780;SDS011;19136;47.032;15.502;2022-11-03T05:13:08;21.85;;;10.73;;
32780;SDS011;19136;47.032;15.502;2022-11-03T05:15:50;21.55;;;10.00;;
32780;SDS011;19136;47.032;15.502;2022-11-03T05:21:03;20.33;;;10.75;;
32780;SDS011;19136;47.032;15.502;2022-11-03T05:23:42;26.75;;;10.70;;
32780;SDS011;19136;47.032;15.502;2022-11-03T05:26:17;19.58;;;10.90;;
32780;SDS011;19136;47.032;15.502;2022-11-03T05:28:48;27.35;;;12.50;;
32780;SDS011;19136;47.032;15.502;2022-11-03T05:31:29;20.40;;;12.30;;
32780;SDS011;19136;47.032;15.502;2022-11-03T05:33:57;24.15;;;12.40;;
32780;SDS011;19136;47.032;15.502;2022-11-03T05:36:23;24.40;;;12.52;;
32780;SDS011;19136;47.032;15.502;2022-11-03T05:38:50;24.73;;;11.40;;
32780;SDS011;19136;47.032;15.502;2022-11-03T05:41:21;24.65;;;11.50;;
32780;SDS011;19136;47.032;15.502;2022-11-03T05:43:53;24.40;;;10.40;;
32780;SDS011;19136;47.032;15.502;2022-11-03T05:46:25;19.80;;;11.35;;
32780;SDS011;19136;47.032;15.502;2022-11-03T05:48:52;18.42;;;10.55;;
32780;SDS011;19136;47.032;15.502;2022-11-03T05:51:19;21.55;;;10.75;;
32780;SDS011;19136;47.032;15.502;2022-11-03T05:53:47;26.08;;;10.77;;
32780;SDS011;19136;47.032;15.502;2022-11-03T05:56:17;20.55;;;10.93;;
32780;SDS011;19136;47.032;15.502;2022-11-03T05:58:44;22.88;;;11.02;;
32780;SDS011;19136;47.032;15.502;2022-11-03T06:03:55;23.67;;;11.45;;
32780;SDS011;19136;47.032;15.502;2022-11-03T06:06:31;24.88;;;11.45;;
32780;SDS011;19136;47.032;15.502;2022-11-03T06:08:58;22.08;;;11.63;;
32780;SDS011;19136;47.032;15.502;2022-11-03T06:11:34;20.13;;;10.95;;
32780;SDS011;19136;47.032;15.502;2022-11-03T06:14:01;20.88;;;11.00;;
32780;SDS011;19136;47.032;15.502;2022-11-03T06:16:43;32.92;;;11.63;;
32780;SDS011;19136;47.032;15.502;2022-11-03T06:19:21;20.20;;;10.95;;
32780;SDS011;19136;47.032;15.502;2022-11-03T06:21:49;21.25;;;10.93;;
32780;SDS011;19136;47.032;15.502;2022-11-03T06:24:16;24.27;;;12.13;;
32780;SDS011;19136;47.032;15.502;2022-11-03T06:26:43;21.63;;;11.20;;
32780;SDS011;19136;47.032;15.502;2022-11-03T06:29:13;19.90;;;10.02;;
32780;SDS011;19136;47.032;15.502;2022-11-03T06:31:40;21.17;;;10.93;;
32780;SDS011;19136;47.032;15.502;2022-11-03T06:34:17;23.17;;;11.40;;
32780;SDS011;19136;47.032;15.502;2022-11-03T06:36:55;24.35;;;10.55;;
32780;SDS011;19136;47.032;15.502;2022-11-03T06:39:24;25.67;;;11.50;;
32780;SDS011;19136;47.032;15.502;2022-11-03T06:41:49;36.65;;;11.88;;
32780;SDS011;19136;47.032;15.502;2022-11-03T06:49:26;21.95;;;10.35;;
32780;SDS011;19136;47.032;15.502;2022-11-03T06:51:54;29.27;;;11.73;;
32780;SDS011;19136;47.032;15.502;2022-11-03T06:54:20;23.17;;;10.70;;
32780;SDS011;19136;47.032;15.502;2022-11-03T06:56:46;27.08;;;10.63;;
32780;SDS011;19136;47.032;15.502;2022-11-03T06:59:12;26.02;;;10.80;;
32780;SDS011;19136;47.032;15.502;2022-11-03T07:01:38;17.60;;;10.45;;
32780;SDS011;19136;47.032;15.502;2022-11-03T07:04:13;21.75;;;11.02;;
32780;SDS011;19136;47.032;15.502;2022-11-03T07:06:42;18.48;;;10.18;;
32780;SDS011;19136;47.032;15.502;2022-11-03T07:09:12;26.95;;;11.35;;
32780;SDS011;19136;47.032;15.502;2022-11-03T07:11:44;27.73;;;11.43;;
32780;SDS011;19136;47.032;15.502;2022-11-03T07:14:21;23.38;;;10.93;;
32780;SDS011;19136;47.032;15.502;2022-11-03T07:16:49;23.58;;;10.55;;
32780;SDS011;19136;47.032;15.502;2022-11-03T07:19:21;23.20;;;10.68;;
32780;SDS011;19136;47.032;15.502;2022-11-03T07:21:50;20.87;;;9.77;;
32780;SDS011;19136;47.032;15.502;2022-11-03T07:24:25;19.80;;;9.30;;
32780;SDS011;19136;47.032;15.502;2022-11-03T07:27:01;21.88;;;9.43;;
32780;SDS011;19136;47.032;15.502;2022-11-03T07:29:38;22.25;;;8.80;;
32780;SDS011;19136;47.032;15.502;2022-11-03T07:32:25;28.75;;;9.27;;
32780;SDS011;19136;47.032;15.502;2022-11-03T07:34:51;21.48;;;9.38;;
32780;SDS011;19136;47.032;15.502;2022-11-03T07:37:18;24.30;;;10.15;;
32780;SDS011;19136;47.032;15.502;2022-11-03T07:39:45;20.42;;;9.45;;
32780;SDS011;19136;47.032;15.502;2022-11-03T07:42:14;25.13;;;9.45;;
32780;SDS011;19136;47.032;15.502;2022-11-03T07:44:42;19.73;;;9.32;;
32780;SDS011;19136;47.032;15.502;2022-11-03T07:47:18;20.17;;;8.15;;
32780;SDS011;19136;47.032;15.502;2022-11-03T07:49:44;21.20;;;8.20;;
32780;SDS011;19136;47.032;15.502;2022-11-03T07:52:12;23.88;;;8.20;;
32780;SDS011;19136;47.032;15.502;2022-11-03T07:54:39;16.88;;;7.38;;
32780;SDS011;19136;47.032;15.502;2022-11-03T07:57:05;21.70;;;7.20;;
32780;SDS011;19136;47.032;15.502;2022-11-03T07:59:39;12.93;;;6.63;;
32780;SDS011;19136;47.032;15.502;2022-11-03T08:02:47;20.88;;;7.40;;
32780;SDS011;19136;47.032;15.502;2022-11-03T08:04:55;13.38;;;5.28;;
32780;SDS011;19136;47.032;15.502;2022-11-03T08:07:20;12.02;;;5.10;;
32780;SDS011;19136;47.032;15.502;2022-11-03T08:09:46;25.00;;;6.55;;
32780;SDS011;19136;47.032;15.502;2022-11-03T08:12:12;11.50;;;4.80;;
32780;SDS011;19136;47.032;15.502;2022-11-03T08:14:37;15.57;;;5.00;;
32780;SDS011;19136;47.032;15.502;2022-11-03T08:17:03;10.25;;;4.65;;
32780;SDS011;19136;47.032;15.502;2022-11-03T08:19:29;15.40;;;4.80;;
32780;SDS011;19136;47.032;15.502;2022-11-03T08:21:55;11.68;;;4.72;;
32780;SDS011;19136;47.032;15.502;2022-11-03T08:24:20;11.05;;;4.63;;
32780;SDS011;19136;47.032;15.502;2022-11-03T08:26:46;9.65;;;4.03;;
32780;SDS011;19136;47.032;15.502;2022-11-03T08:29:12;11.82;;;4.35;;
32780;SDS011;19136;47.032;15.502;2022-11-03T08:31:37;8.52;;;4.05;;
32780;SDS011;19136;47.032;15.502;2022-11-03T08:34:02;11.23;;;3.88;;
32780;SDS011;19136;47.032;15.502;2022-11-03T08:36:28;13.82;;;3.88;;
32780;SDS011;19136;47.032;15.502;2022-11-03T08:38:53;12.15;;;3.83;;
32780;SDS011;19136;47.032;15.502;2022-11-03T08:41:19;10.77;;;3.67;;
32780;SDS011;19136;47.032;15.502;2022-11-03T08:43:44;12.27;;;2.83;;
32780;SDS011;19136;47.032;15.502;2022-11-03T08:46:10;11.10;;;3.70;;
32780;SDS011;19136;47.032;15.502;2022-11-03T08:48:35;13.00;;;3.30;;
32780;SDS011;19136;47.032;15.502;2022-11-03T08:51:01;12.52;;;3.30;;
32780;SDS011;19136;47.032;15.502;2022-11-03T08:53:26;14.20;;;3.42;;
32780;SDS011;19136;47.032;15.502;2022-11-03T08:55:52;13.80;;;3.80;;
32780;SDS011;19136;47.032;15.502;2022-11-03T08:58:18;10.45;;;3.00;;
32780;SDS011;19136;47.032;15.502;2022-11-03T09:00:44;16.10;;;3.03;;
32780;SDS011;19136;47.032;15.502;2022-11-03T09:03:09;11.73;;;3.05;;
32780;SDS011;19136;47.032;15.502;2022-11-03T09:05:35;10.27;;;3.15;;
32780;SDS011;19136;47.032;15.502;2022-11-03T09:08:00;10.15;;;3.45;;
32780;SDS011;19136;47.032;15.502;2022-11-03T09:10:26;16.40;;;3.55;;
32780;SDS011;19136;47.032;15.502;2022-11-03T09:12:52;12.73;;;3.63;;
32780;SDS011;19136;47.032;15.502;2022-11-03T09:15:18;13.60;;;3.50;;
32780;SDS011;19136;47.032;15.502;2022-11-03T09:17:44;8.88;;;3.28;;
32780;SDS011;19136;47.032;15.502;2022-11-03T09:20:09;9.70;;;3.15;;
32780;SDS011;19136;47.032;15.502;2022-11-03T09:22:35;10.23;;;3.60;;
32780;SDS011;19136;47.032;15.502;2022-11-03T09:25:01;13.13;;;3.40;;
32780;SDS011;19136;47.032;15.502;2022-11-03T09:27:26;13.15;;;3.95;;
32780;SDS011;19136;47.032;15.502;2022-11-03T09:29:52;8.55;;;3.05;;
32780;SDS011;19136;47.032;15.502;2022-11-03T09:32:17;11.68;;;3.33;;
32780;SDS011;19136;47.032;15.502;2022-11-03T09:34:43;16.40;;;4.00;;
32780;SDS011;19136;47.032;15.502;2022-11-03T09:37:09;10.98;;;3.40;;
32780;SDS011;19136;47.032;15.502;2022-11-03T09:39:34;9.23;;;3.85;;
32780;SDS011;19136;47.032;15.502;2022-11-03T09:42:00;11.13;;;3.72;;
32780;SDS011;19136;47.032;15.502;2022-11-03T09:44:27;11.57;;;3.22;;
32780;SDS011;19136;47.032;15.502;2022-11-03T09:46:53;14.32;;;3.00;;
32780;SDS011;19136;47.032;15.502;2022-11-03T09:49:19;9.50;;;3.30;;
32780;SDS011;19136;47.032;15.502;2022-11-03T09:51:45;11.95;;;3.90;;
32780;SDS011;19136;47.032;15.502;2022-11-03T09:54:14;10.90;;;3.60;;
32780;SDS011;19136;47.032;15.502;2022-11-03T09:56:40;13.23;;;3.40;;
32780;SDS011;19136;47.032;15.502;2022-11-03T09:59:12;14.55;;;3.60;;
32780;SDS011;19136;47.032;15.502;2022-11-03T10:01:45;14.50;;;3.83;;
32780;SDS011;19136;47.032;15.502;2022-11-03T10:04:14;7.88;;;3.03;;
32780;SDS011;19136;47.032;15.502;2022-11-03T10:06:40;7.82;;;3.15;;
32780;SDS011;19136;47.032;15.502;2022-11-03T10:09:05;10.52;;;3.50;;
32780;SDS011;19136;47.032;15.502;2022-11-03T10:11:36;14.45;;;3.90;;
32780;SDS011;19136;47.032;15.502;2022-11-03T10:14:02;9.48;;;3.55;;
32780;SDS011;19136;47.032;15.502;2022-11-03T10:16:28;12.18;;;3.60;;
32780;SDS011;19136;47.032;15.502;2022-11-03T10:18:54;9.43;;;3.53;;
32780;SDS011;19136;47.032;15.502;2022-11-03T10:21:24;8.18;;;3.33;;
32780;SDS011;19136;47.032;15.502;2022-11-03T10:23:58;10.43;;;4.00;;
32780;SDS011;19136;47.032;15.502;2022-11-03T10:26:23;10.63;;;3.42;;
32780;SDS011;19136;47.032;15.502;2022-11-03T10:31:37;10.85;;;3.30;;
32780;SDS011;19136;47.032;15.502;2022-11-03T10:34:03;9.60;;;3.45;;
32780;SDS011;19136;47.032;15.502;2022-11-03T10:36:31;13.77;;;4.13;;
32780;SDS011;19136;47.032;15.502;2022-11-03T10:38:57;11.45;;;3.78;;
32780;SDS011;19136;47.032;15.502;2022-11-03T10:41:29;10.77;;;3.60;;
32780;SDS011;19136;47.032;15.502;2022-11-03T10:44:03;12.10;;;3.63;;
32780;SDS011;19136;47.032;15.502;2022-11-03T10:46:59;9.93;;;4.30;;
32780;SDS011;19136;47.032;15.502;2022-11-03T10:49:32;9.98;;;3.80;;
32780;SDS011;19136;47.032;15.502;2022-11-03T10:54:45;10.85;;;3.95;;
32780;SDS011;19136;47.032;15.502;2022-11-03T10:57:10;12.25;;;4.50;;
32780;SDS011;19136;47.032;15.502;2022-11-03T10:59:36;9.50;;;4.10;;
32780;SDS011;19136;47.032;15.502;2022-11-03T11:02:07;9.82;;;3.72;;
32780;SDS011;19136;47.032;15.502;2022-11-03T11:04:59;14.18;;;3.92;;
32780;SDS011;19136;47.032;15.502;2022-11-03T11:07:29;10.55;;;3.60;;
32780;SDS011;19136;47.032;15.502;2022-11-03T11:12:29;10.00;;;4.13;;
32780;SDS011;19136;47.032;15.502;2022-11-03T11:14:56;8.18;;;3.80;;
32780;SDS011;19136;47.032;15.502;2022-11-03T11:17:42;8.68;;;3.92;;
32780;SDS011;19136;47.032;15.502;2022-11-03T11:22:48;12.15;;;3.80;;
32780;SDS011;19136;47.032;15.502;2022-11-03T11:25:15;12.13;;;4.05;;
32780;SDS011;19136;47.032;15.502;2022-11-03T11:35:11;8.18;;;3.95;;
32780;SDS011;19136;47.032;15.502;2022-11-03T11:37:40;10.05;;;3.95;;
32780;SDS011;19136;47.032;15.502;2022-11-03T11:48:30;8.87;;;4.07;;
32780;SDS011;19136;47.032;15.502;2022-11-03T11:50:56;11.07;;;4.38;;
32780;SDS011;19136;47.032;15.502;2022-11-03T11:53:22;17.38;;;4.13;;
32780;SDS011;19136;47.032;15.502;2022-11-03T11:55:49;9.43;;;3.50;;
32780;SDS011;19136;47.032;15.502;2022-11-03T11:59:03;13.45;;;4.15;;
32780;SDS011;19136;47.032;15.502;2022-11-03T12:01:25;16.50;;;4.68;;
32780;SDS011;19136;47.032;15.502;2022-11-03T12:04:00;12.43;;;4.10;;
32780;SDS011;19136;47.032;15.502;2022-11-03T12:06:30;12.00;;;4.45;;
32780;SDS011;19136;47.032;15.502;2022-11-03T12:09:03;13.45;;;4.38;;
32780;SDS011;19136;47.032;15.502;2022-11-03T12:11:49;10.52;;;4.03;;
32780;SDS011;19136;47.032;15.502;2022-11-03T12:16:55;14.18;;;4.25;;
32780;SDS011;19136;47.032;15.502;2022-11-03T12:19:48;11.52;;;3.60;;
32780;SDS011;19136;47.032;15.502;2022-11-03T12:25:03;15.20;;;4.13;;
32780;SDS011;19136;47.032;15.502;2022-11-03T12:29:58;10.80;;;3.97;;
32780;SDS011;19136;47.032;15.502;2022-11-03T12:32:26;11.35;;;4.28;;
32780;SDS011;19136;47.032;15.502;2022-11-03T12:34:51;9.88;;;4.43;;
32780;SDS011;19136;47.032;15.502;2022-11-03T12:37:19;9.30;;;3.80;;
32780;SDS011;19136;47.032;15.502;2022-11-03T12:39:45;12.73;;;3.40;;
32780;SDS011;19136;47.032;15.502;2022-11-03T12:42:10;12.25;;;4.35;;
32780;SDS011;19136;47.032;15.502;2022-11-03T12:44:36;13.27;;;3.90;;
32780;SDS011;19136;47.032;15.502;2022-11-03T12:47:01;10.35;;;4.28;;
32780;SDS011;19136;47.032;15.502;2022-11-03T12:49:27;9.30;;;3.72;;
32780;SDS011;19136;47.032;15.502;2022-11-03T12:51:52;11.85;;;4.60;;
32780;SDS011;19136;47.032;15.502;2022-11-03T12:54:18;18.02;;;4.45;;
32780;SDS011;19136;47.032;15.502;2022-11-03T12:56:43;14.32;;;4.32;;
32780;SDS011;19136;47.032;15.502;2022-11-03T12:59:09;12.43;;;4.10;;
32780;SDS011;19136;47.032;15.502;2022-11-03T13:01:34;9.95;;;4.55;;
32780;SDS011;19136;47.032;15.502;2022-11-03T13:04:00;13.43;;;4.25;;
32780;SDS011;19136;47.032;15.502;2022-11-03T13:06:25;12.38;;;4.50;;
32780;SDS011;19136;47.032;15.502;2022-11-03T13:08:51;15.20;;;5.00;;
32780;SDS011;19136;47.032;15.502;2022-11-03T13:11:17;10.60;;;4.75;;
32780;SDS011;19136;47.032;15.502;2022-11-03T13:14:01;21.08;;;5.85;;
32780;SDS011;19136;47.032;15.502;2022-11-03T13:16:27;10.48;;;4.68;;
32780;SDS011;19136;47.032;15.502;2022-11-03T13:18:53;12.20;;;4.93;;
32780;SDS011;19136;47.032;15.502;2022-11-03T13:21:18;15.93;;;5.78;;
32780;SDS011;19136;47.032;15.502;2022-11-03T13:23:44;15.68;;;5.90;;
32780;SDS011;19136;47.032;15.502;2022-11-03T13:26:10;12.85;;;5.40;;
32780;SDS011;19136;47.032;15.502;2022-11-03T13:28:35;19.83;;;5.80;;
32780;SDS011;19136;47.032;15.502;2022-11-03T13:31:00;18.92;;;5.70;;
32780;SDS011;19136;47.032;15.502;2022-11-03T13:33:26;11.23;;;4.97;;
32780;SDS011;19136;47.032;15.502;2022-11-03T13:35:51;14.98;;;5.80;;
32780;SDS011;19136;47.032;15.502;2022-11-03T13:38:17;10.55;;;5.85;;
32780;SDS011;19136;47.032;15.502;2022-11-03T13:40:42;15.60;;;5.80;;
32780;SDS011;19136;47.032;15.502;2022-11-03T13:43:08;23.40;;;6.45;;
32780;SDS011;19136;47.032;15.502;2022-11-03T13:45:33;12.45;;;6.10;;
32780;SDS011;19136;47.032;15.502;2022-11-03T13:47:59;11.88;;;5.47;;
32780;SDS011;19136;47.032;15.502;2022-11-03T13:50:24;17.90;;;6.70;;
32780;SDS011;19136;47.032;15.502;2022-11-03T13:52:50;14.77;;;6.22;;
32780;SDS011;19136;47.032;15.502;2022-11-03T13:55:15;13.27;;;6.35;;
32780;SDS011;19136;47.032;15.502;2022-11-03T13:57:41;15.35;;;6.43;;
32780;SDS011;19136;47.032;15.502;2022-11-03T14:00:07;14.43;;;6.38;;
32780;SDS011;19136;47.032;15.502;2022-11-03T14:02:38;22.58;;;8.98;;
32780;SDS011;19136;47.032;15.502;2022-11-03T14:05:04;15.73;;;7.50;;
32780;SDS011;19136;47.032;15.502;2022-11-03T14:07:29;22.67;;;7.00;;
32780;SDS011;19136;47.032;15.502;2022-11-03T14:09:55;14.38;;;6.47;;
32780;SDS011;19136;47.032;15.502;2022-11-03T14:12:20;14.10;;;6.82;;
32780;SDS011;19136;47.032;15.502;2022-11-03T14:14:55;22.10;;;6.85;;
32780;SDS011;19136;47.032;15.502;2022-11-03T14:17:21;13.48;;;6.78;;
32780;SDS011;19136;47.032;15.502;2022-11-03T14:19:48;15.13;;;6.53;;
32780;SDS011;19136;47.032;15.502;2022-11-03T14:22:14;16.05;;;6.85;;
32780;SDS011;19136;47.032;15.502;2022-11-03T14:24:40;22.67;;;6.65;;
32780;SDS011;19136;47.032;15.502;2022-11-03T14:27:05;14.55;;;6.95;;
32780;SDS011;19136;47.032;15.502;2022-11-03T14:29:31;16.40;;;6.72;;
32780;SDS011;19136;47.032;15.502;2022-11-03T14:31:56;12.88;;;6.60;;
32780;SDS011;19136;47.032;15.502;2022-11-03T14:34:22;13.00;;;7.18;;
32780;SDS011;19136;47.032;15.502;2022-11-03T14:36:47;18.80;;;7.50;;
32780;SDS011;19136;47.032;15.502;2022-11-03T14:39:12;15.13;;;6.88;;
32780;SDS011;19136;47.032;15.502;2022-11-03T14:41:38;47.58;;;9.85;;
32780;SDS011;19136;47.032;15.502;2022-11-03T14:44:22;354.25;;;38.47;;
32780;SDS011;19136;47.032;15.502;2022-11-03T14:46:48;64.88;;;11.25;;
32780;SDS011;19136;47.032;15.502;2022-11-03T14:49:13;27.27;;;6.88;;
32780;SDS011;19136;47.032;15.502;2022-11-03T14:51:38;21.75;;;6.90;;
32780;SDS011;19136;47.032;15.502;2022-11-03T14:54:04;18.55;;;7.32;;
32780;SDS011;19136;47.032;15.502;2022-11-03T14:56:29;20.83;;;6.68;;
32780;SDS011;19136;47.032;15.502;2022-11-03T14:58:55;16.20;;;7.47;;
32780;SDS011;19136;47.032;15.502;2022-11-03T15:01:20;13.63;;;6.40;;
32780;SDS011;19136;47.032;15.502;2022-11-03T15:03:46;15.43;;;7.80;;
32780;SDS011;19136;47.032;15.502;2022-11-03T15:06:11;22.95;;;8.95;;
32780;SDS011;19136;47.032;15.502;2022-11-03T15:08:37;18.90;;;7.60;;
32780;SDS011;19136;47.032;15.502;2022-11-03T15:11:06;17.90;;;7.28;;
32780;SDS011;19136;47.032;15.502;2022-11-03T15:13:32;14.35;;;7.63;;
32780;SDS011;19136;47.032;15.502;2022-11-03T15:15:58;14.82;;;6.95;;
32780;SDS011;19136;47.032;15.502;2022-11-03T15:18:24;15.68;;;8.48;;
32780;SDS011;19136;47.032;15.502;2022-11-03T15:20:49;19.65;;;7.55;;
32780;SDS011;19136;47.032;15.502;2022-11-03T15:23:15;12.45;;;7.10;;
32780;SDS011;19136;47.032;15.502;2022-11-03T15:25:40;14.88;;;7.45;;
32780;SDS011;19136;47.032;15.502;2022-11-03T15:28:06;16.33;;;7.55;;
32780;SDS011;19136;47.032;15.502;2022-11-03T15:30:31;18.15;;;7.05;;